Latest Weather Observations for Cape Nelson

IDV60801

Issued at 9:31 pm EDT Monday 30 March 2015 (issued every 30 minutes, with the page automatically refreshed every 10 minutes)

About weather observations | Map of weather stations | Latest weather observations for VIC | Other Formats
Station Details ID: 090184 Name: CAPE NELSON LIGHTHOUSE Lat: -38.43 Lon: 141.54 Height: 45.4 m
Data from the previous 72 hours. | See also: Recent months at Cape Nelson
Date/Time
EDT
Temp
°C
App
Temp
°C
Dew
Point
Rel
Hum
%
Delta-T
°C
Wind Press
QNH
hPa
Press
MSL
hPa
Rain
since 9 am
mm
Dir
 
Spd
km/h
Gust
km/h
Spd
kts
Gust
kts
30/09:30pm 16.3 15.8 15.0 92 0.7 W 11 15 6 8 1025.9 1025.9 0.0
30/09:00pm 16.3 16.1 14.8 91 0.9 W 9 15 5 8 1025.8 1025.8 0.0
30/08:30pm 16.4 15.9 14.9 91 0.9 W 11 19 6 10 1025.8 1025.8 0.0
30/08:00pm 16.4 16.3 14.9 91 0.9 W 9 13 5 7 1025.5 1025.5 0.0
30/07:30pm 16.6 16.1 15.0 90 0.9 W 11 19 6 10 1025.3 1025.3 0.0
30/07:00pm 17.0 16.6 15.3 90 1.0 W 11 17 6 9 1025.2 1025.2 0.0
30/06:30pm 17.5 16.8 15.5 88 1.2 WNW 13 20 7 11 1024.9 1024.9 0.0
30/06:00pm 17.6 16.5 15.2 86 1.4 W 15 22 8 12 1024.7 1024.7 0.0
30/05:30pm 18.2 17.1 15.3 83 1.7 W 15 22 8 12 1024.6 1024.6 0.0
30/05:00pm 18.3 16.4 15.2 82 1.8 WNW 19 24 10 13 1024.3 1024.3 0.0
30/04:30pm 19.2 17.9 15.7 80 2.1 WNW 17 20 9 11 1024.4 1024.4 0.0
30/04:00pm 18.5 16.4 14.8 79 2.1 WNW 19 24 10 13 1024.3 1024.3 0.0
30/03:30pm 19.7 18.0 14.7 73 2.9 WNW 17 22 9 12 1024.4 1024.4 0.0
30/03:00pm 20.0 18.3 14.6 71 3.1 WNW 17 22 9 12 1024.5 1024.5 0.0
30/02:30pm 19.0 16.9 14.7 76 2.5 WNW 19 26 10 14 1024.6 1024.6 0.0
30/02:00pm 19.5 17.2 14.7 74 2.8 WNW 20 26 11 14 1024.9 1024.9 0.0
30/01:30pm 19.5 17.3 15.0 75 2.6 WNW 20 28 11 15 1025.0 1025.0 0.0
30/01:00pm 19.0 16.6 14.5 75 2.6 WNW 20 26 11 14 1025.1 1025.1 0.0
30/12:30pm 18.7 16.7 15.0 79 2.2 WNW 19 24 10 13 1025.1 1025.1 0.0
30/12:00pm 18.2 16.8 15.5 84 1.6 WNW 17 22 9 12 1025.2 1025.2 0.0
30/11:30am 17.5 16.0 15.3 87 1.3 WNW 17 20 9 11 1025.2 1025.2 0.0
30/11:00am 16.8 15.7 15.3 91 0.9 WNW 15 20 8 11 1025.3 1025.3 0.0
30/10:30am 16.3 15.6 15.5 95 0.5 WNW 13 19 7 10 1025.1 1025.1 0.0
30/10:00am 15.2 13.8 14.6 96 0.3 NW 15 20 8 11 1024.8 1024.8 0.0
30/09:30am 14.6 13.0 13.8 95 0.4 NW 15 20 8 11 1024.5 1024.5 0.0
30/09:00am 14.6 13.0 14.0 96 0.3 NW 15 17 8 9 1024.2 1024.2 0.2
30/08:30am 14.0 12.5 13.2 95 0.4 NW 13 17 7 9 1023.8 1023.8 0.2
30/08:00am 14.1 12.7 13.3 95 0.4 NNW 13 17 7 9 1023.6 1023.6 0.2
30/07:30am 14.5 13.2 13.7 95 0.4 NW 13 20 7 11 1023.4 1023.4 0.2
30/07:00am 14.5 13.3 13.9 96 0.3 NW 13 19 7 10 1023.0 1023.0 0.2
30/06:30am 14.3 12.9 13.5 95 0.4 NW 13 19 7 10 1022.7 1022.7 0.2
30/06:00am 14.5 13.2 13.7 95 0.4 NW 13 20 7 11 1022.6 1022.6 0.2
30/05:30am 14.2 12.4 13.4 95 0.4 NW 15 19 8 10 1022.5 1022.5 0.2
30/05:00am 14.7 12.7 13.9 95 0.4 NW 17 19 9 10 1022.5 1022.5 0.2
30/04:30am 14.9 13.7 14.1 95 0.5 NW 13 20 7 11 1022.5 1022.5 0.0
30/04:00am 14.6 13.0 13.8 95 0.4 NW 15 19 8 10 1022.4 1022.4 0.0
30/03:30am 14.5 12.8 13.7 95 0.4 NW 15 19 8 10 1022.5 1022.5 0.0
30/03:00am 14.4 12.7 13.6 95 0.4 NW 15 19 8 10 1022.5 1022.5 0.0
30/02:30am 14.8 12.8 14.0 95 0.5 NW 17 22 9 12 1022.7 1022.7 0.0
30/02:00am 14.5 12.8 13.5 94 0.6 NW 15 19 8 10 1022.8 1022.8 0.0
30/01:30am 14.6 12.9 13.6 94 0.6 NW 15 17 8 9 1022.9 1022.9 0.0
30/01:00am 14.8 13.5 13.8 94 0.6 NW 13 17 7 9 1022.7 1022.7 0.0
30/12:30am 15.0 13.8 13.9 93 0.6 NW 13 19 7 10 1022.7 1022.7 0.0
30/12:00am 15.2 13.7 14.1 93 0.6 NW 15 19 8 10 1022.8 1022.8 0.0
 
Date/Time
EDT
Temp
°C
App
Temp
°C
Dew
Point
Rel
Hum
%
Delta-T
°C
Wind Press
QNH
hPa
Press
MSL
hPa
Rain
since 9 am
mm
Dir
 
Spd
km/h
Gust
km/h
Spd
kts
Gust
kts
29/11:30pm 15.5 14.1 14.4 93 0.6 WNW 15 20 8 11 1023.1 1023.1 0.0
29/11:00pm 15.5 14.0 14.2 92 0.7 WNW 15 20 8 11 1023.2 1023.2 0.0
29/10:30pm 15.8 14.4 14.5 92 0.7 WNW 15 19 8 10 1023.2 1023.2 0.0
29/10:00pm 16.0 14.2 14.5 91 0.9 WNW 17 22 9 12 1023.1 1023.1 0.0
29/09:30pm 16.2 14.5 14.7 91 0.9 W 17 24 9 13 1023.0 1023.0 0.0
29/09:00pm 16.1 14.0 14.6 91 0.9 W 19 24 10 13 1022.7 1022.7 0.0
29/08:30pm 16.2 14.9 14.7 91 0.9 W 15 22 8 12 1022.5 1022.5 0.0
29/08:00pm 16.3 15.0 14.7 90 0.9 WNW 15 22 8 12 1022.5 1022.5 0.0
29/07:30pm 16.4 15.0 14.4 88 1.1 WNW 15 20 8 11 1022.3 1022.3 0.0
29/07:00pm 16.7 15.2 14.3 86 1.4 WNW 15 22 8 12 1022.0 1022.0 0.0
29/06:30pm 17.1 15.3 14.4 84 1.6 WNW 17 22 9 12 1021.7 1021.7 0.0
29/06:00pm 17.5 15.2 14.0 80 2.0 W 19 26 10 14 1021.5 1021.5 0.0
29/05:30pm 17.4 13.2 13.5 78 2.2 W 28 37 15 20 1021.3 1021.2 0.0
29/05:00pm 17.3 13.4 13.4 78 2.2 W 26 32 14 17 1021.2 1021.1 0.0
29/04:30pm 17.6 14.6 13.7 78 2.2 W 22 30 12 16 1021.1 1021.0 0.0
29/04:00pm 17.9 15.7 13.4 75 2.5 W 17 24 9 13 1021.2 1021.1 0.0
29/03:30pm 18.3 15.8 13.6 74 2.7 W 19 30 10 16 1021.3 1021.2 0.0
29/03:00pm 18.2 15.1 13.3 73 2.8 WNW 22 32 12 17 1021.5 1021.5 0.0
29/02:30pm 18.8 15.8 12.5 67 3.5 WNW 20 30 11 16 1021.6 1021.6 0.0
29/02:00pm 19.3 16.1 13.0 67 3.6 WNW 22 28 12 15 1021.9 1021.9 0.0
29/01:30pm 19.1 15.8 12.8 67 3.5 WNW 22 30 12 16 1021.9 1021.9 0.0
29/01:00pm 19.1 16.0 13.3 69 3.3 WNW 22 30 12 16 1022.1 1022.1 0.0
29/12:30pm 18.9 15.7 13.1 69 3.3 WNW 22 32 12 17 1022.1 1022.1 0.0
29/12:00pm 18.0 14.6 12.5 70 3.1 WNW 22 30 12 16 1022.3 1022.3 0.0
29/11:30am 17.9 14.4 12.1 69 3.2 NW 22 32 12 17 1022.3 1022.3 0.0
29/11:00am 17.6 14.0 11.8 69 3.2 NW 22 32 12 17 1022.4 1022.4 0.0
29/10:30am 17.4 13.3 11.4 68 3.3 NW 24 30 13 16 1022.3 1022.3 0.0
29/10:00am 16.3 12.8 10.8 70 2.9 NNW 20 26 11 14 1022.2 1022.2 0.0
29/09:30am 14.2 10.6 9.8 75 2.3 NW 19 28 10 15 1022.0 1022.0 0.0
29/09:00am 14.0 10.2 9.8 76 2.2 NNW 20 30 11 16 1021.8 1021.8 0.2
29/08:30am 13.0 9.3 9.6 80 1.7 NNW 19 24 10 13 1021.6 1021.6 0.2
29/08:00am 11.8 8.0 9.2 84 1.3 NNW 19 24 10 13 1021.4 1021.4 0.2
29/07:30am 11.5 8.1 9.1 85 1.2 NNW 17 20 9 11 1021.1 1021.0 0.2
29/07:00am 12.0 8.7 9.4 84 1.3 NNW 17 24 9 13 1020.8 1020.7 0.2
29/06:30am 12.1 8.5 10.0 87 1.1 NNW 19 26 10 14 1020.7 1020.6 0.2
29/06:00am 11.2 8.3 9.6 90 0.8 NNW 15 19 8 10 1020.7 1020.6 0.2
29/05:30am 10.7 8.1 9.3 91 0.7 NW 13 17 7 9 1020.6 1020.5 0.2
29/05:00am 10.9 8.3 9.5 91 0.7 NNW 13 19 7 10 1020.4 1020.3 0.2
29/04:30am 10.7 8.1 9.5 92 0.6 NW 13 19 7 10 1020.5 1020.4 0.2
29/04:00am 9.7 6.9 8.5 92 0.6 NNW 13 13 7 7 1020.4 1020.3 0.2
29/03:30am 9.1 6.1 7.7 91 0.7 NNW 13 15 7 8 1020.7 1020.6 0.2
29/03:00am 9.4 6.8 7.8 90 0.8 NNW 11 13 6 7 1020.8 1020.7 0.2
29/02:30am 10.0 7.5 8.4 90 0.8 N 11 15 6 8 1020.7 1020.6 0.2
29/02:00am 9.9 7.1 8.5 91 0.7 N 13 15 7 8 1020.8 1020.7 0.2
29/01:30am 9.6 7.1 8.0 90 0.8 N 11 13 6 7 1020.8 1020.7 0.2
29/01:00am 9.7 7.2 8.1 90 0.8 N 11 13 6 7 1021.0 1020.9 0.2
29/12:30am 9.7 7.2 8.0 89 0.8 N 11 13 6 7 1021.3 1021.2 0.2
29/12:00am 9.9 7.7 7.8 87 1.0 N 9 11 5 6 1021.6 1021.6 0.2
 
Date/Time
EDT
Temp
°C
App
Temp
°C
Dew
Point
Rel
Hum
%
Delta-T
°C
Wind Press
QNH
hPa
Press
MSL
hPa
Rain
since 9 am
mm
Dir
 
Spd
km/h
Gust
km/h
Spd
kts
Gust
kts
28/11:30pm 10.8 8.7 8.4 85 1.2 N 9 11 5 6 1021.8 1021.8 0.2
28/11:00pm 11.8 10.1 8.3 79 1.7 NNW 7 9 4 5 1022.0 1022.0 0.2
28/10:30pm 13.6 11.4 9.5 76 2.1 WNW 11 15 6 8 1022.2 1022.2 0.2
28/10:00pm 14.3 12.2 9.9 75 2.3 W 11 15 6 8 1022.3 1022.3 0.2
28/09:30pm 14.2 11.8 10.0 76 2.2 WNW 13 17 7 9 1022.2 1022.2 0.2
28/09:00pm 14.3 11.9 9.9 75 2.3 WNW 13 19 7 10 1022.1 1022.1 0.2
28/08:30pm 14.5 12.4 9.9 74 2.4 W 11 17 6 9 1022.1 1022.1 0.2
28/08:00pm 14.5 11.6 9.5 72 2.6 WNW 15 22 8 12 1022.0 1022.0 0.2
28/07:30pm 14.5 11.5 9.1 70 2.8 W 15 22 8 12 1022.0 1022.0 0.2
28/07:00pm 15.1 11.9 10.1 72 2.6 WNW 17 20 9 11 1021.9 1021.9 0.2
28/06:30pm 15.7 12.7 10.7 72 2.7 WNW 17 22 9 12 1021.9 1021.9 0.2
28/06:00pm 16.1 13.8 10.6 70 2.9 W 13 19 7 10 1021.8 1021.8 0.2
28/05:30pm 16.3 14.0 10.6 69 3.0 W 13 20 7 11 1022.0 1022.0 0.2
28/05:00pm 16.3 14.2 9.9 66 3.3 W 11 19 6 10 1022.3 1022.3 0.2
28/04:30pm 15.8 12.9 9.7 67 3.2 W 15 20 8 11 1022.7 1022.7 0.2
28/04:00pm 15.6 12.6 9.3 66 3.2 W 15 20 8 11 1023.0 1023.0 0.2
28/03:30pm 15.4 11.7 9.3 67 3.1 W 19 26 10 14 1023.3 1023.3 0.2
28/03:00pm 15.6 12.1 8.8 64 3.5 W 17 26 9 14 1023.4 1023.4 0.2
28/02:30pm 16.5 12.7 9.7 64 3.6 WNW 20 28 11 15 1023.8 1023.8 0.2
28/02:00pm 16.0 12.3 9.4 65 3.4 WNW 19 24 10 13 1024.0 1024.0 0.2
28/01:30pm 16.0 12.3 10.1 68 3.1 WNW 20 28 11 15 1024.4 1024.4 0.2
28/01:00pm 16.1 12.8 10.8 71 2.8 NW 19 28 10 15 1024.7 1024.7 0.2
28/12:30pm 15.8 13.0 11.4 75 2.4 NW 17 24 9 13 1024.9 1024.9 0.2
28/12:00pm 15.1 12.7 11.5 79 1.9 WNW 15 20 8 11 1025.3 1025.3 0.2
28/11:30am 14.6 12.0 12.1 85 1.4 NW 17 24 9 13 1025.7 1025.7 0.2
28/11:00am 14.5 12.4 12.4 87 1.1 NNW 15 19 8 10 1025.7 1025.7 0.2
28/10:30am 13.6 11.5 12.3 92 0.7 NNW 15 22 8 12 1025.7 1025.7 0.2
28/10:00am 12.8 10.2 12.0 95 0.4 NW 17 22 9 12 1025.9 1025.9 0.2
28/09:30am 12.4 9.3 11.6 95 0.4 NNW 19 24 10 13 1026.1 1026.1 0.2
28/09:00am 12.4 11.2 11.6 95 0.4 NW 9 15 5 8 1025.8 1025.8 8.6
28/08:30am 12.2 9.8 11.4 95 0.4 NW 15 20 8 11 1025.7 1025.7 6.8
28/08:00am 11.7 10.3 10.9 95 0.4 N 9 13 5 7 1025.4 1025.4 6.4
28/07:30am 11.2 10.0 10.3 94 0.5 NNW 7 11 4 6 1025.2 1025.2 6.0
28/07:00am 11.0 9.9 10.1 94 0.5 N 6 7 3 4 1024.8 1024.8 5.4
28/06:30am 11.4 10.3 10.5 94 0.5 N 7 9 4 5 1024.6 1024.6 5.4
28/06:00am 12.0 10.3 11.1 94 0.5 NNW 11 17 6 9 1024.6 1024.6 5.4
28/05:30am 12.3 11.4 11.4 94 0.5 NNE 7 13 4 7 1024.7 1024.7 5.4
28/05:00am 12.5 10.2 11.6 94 0.5 W 15 20 8 11 1024.8 1024.8 5.0
28/04:30am 11.8 10.7 10.5 92 0.7 NNW 7 9 4 5 1024.8 1024.8 3.2
28/04:00am 11.7 10.5 10.3 91 0.7 NNW 7 9 4 5 1024.9 1024.9 3.2
28/03:30am 12.1 11.2 10.7 91 0.7 NNW 6 9 3 5 1025.2 1025.2 3.2
28/03:00am 12.2 12.1 10.8 91 0.7 S 2 7 1 4 1025.3 1025.3 3.2
28/02:30am 12.5 10.8 11.2 92 0.7 W 11 19 6 10 1025.7 1025.7 3.2
28/02:00am 12.7 11.9 11.1 90 0.8 E 6 9 3 5 1026.0 1026.0 3.0
28/01:30am 13.0 11.9 10.5 85 1.3 SSE 7 13 4 7 1025.8 1025.8 2.8
28/01:00am 12.8 11.6 10.2 84 1.3 S 7 9 4 5 1025.9 1025.9 2.8
28/12:30am 12.7 11.1 10.2 85 1.3 S 9 13 5 7 1026.0 1026.0 2.8
28/12:00am 12.8 12.0 10.9 88 1.0 S 6 11 3 6 1026.1 1026.1 2.8
 
Date/Time
EDT
Temp
°C
App
Temp
°C
Dew
Point
Rel
Hum
%
Delta-T
°C
Wind Press
QNH
hPa
Press
MSL
hPa
Rain
since 9 am
mm
Dir
 
Spd
km/h
Gust
km/h
Spd
kts
Gust
kts
27/11:30pm 13.0 11.2 10.9 87 1.1 S 11 19 6 10 1026.3 1026.3 2.6
27/11:00pm 13.1 10.6 11.0 87 1.1 S 15 20 8 11 1026.3 1026.3 2.6
27/10:30pm 12.8 11.2 10.3 85 1.3 S 9 13 5 7 1026.4 1026.4 2.6
27/10:00pm 12.7 10.4 10.4 86 1.2 S 13 20 7 11 1026.7 1026.6 2.6

Other Formats:

Comma delimited format used in spreadsheet applications
http://www.bom.gov.au/fwo/IDV60801/IDV60801.94826.axf

JavaScript Object Notation format (JSON) in row-major order
http://www.bom.gov.au/fwo/IDV60801/IDV60801.94826.json